createdAt,value
2022-12-20T00:01:35.672Z,101222.75
2022-12-20T00:04:05.813Z,101215.03
2022-12-20T00:06:35.973Z,101222.19
2022-12-20T00:09:07.701Z,101226.41
2022-12-20T00:11:38.014Z,101223.53
2022-12-20T00:14:05.196Z,101221.91
2022-12-20T00:16:32.270Z,101230.41
2022-12-20T00:19:06.961Z,101229.00
2022-12-20T00:21:36.199Z,101232.28
2022-12-20T00:24:05.296Z,101223.03
2022-12-20T00:26:34.812Z,101217.78
2022-12-20T00:29:01.993Z,101210.66
2022-12-20T00:31:31.346Z,101214.44
2022-12-20T00:34:00.665Z,101217.63
2022-12-20T00:36:30.700Z,101207.44
2022-12-20T00:39:00.309Z,101202.38
2022-12-20T00:41:31.443Z,101196.72
2022-12-20T00:43:58.657Z,101182.59
2022-12-20T00:46:26.800Z,101180.06
2022-12-20T00:48:55.766Z,101187.69
2022-12-20T00:51:28.176Z,101188.25
2022-12-20T00:53:56.242Z,101191.63
2022-12-20T00:56:23.531Z,101201.34
2022-12-20T00:58:54.303Z,101200.44
2022-12-20T01:01:27.504Z,101197.09
2022-12-20T01:03:55.215Z,101191.78
2022-12-20T01:06:25.109Z,101200.22
2022-12-20T01:08:54.447Z,101195.47
2022-12-20T01:11:36.015Z,101204.69
2022-12-20T01:14:13.537Z,101202.38
2022-12-20T01:16:44.900Z,101194.19
2022-12-20T01:19:17.861Z,101194.25
2022-12-20T01:21:45.602Z,101196.63
2022-12-20T01:24:16.469Z,101194.03
2022-12-20T01:26:44.850Z,101199.44
2022-12-20T01:29:12.461Z,101196.84
2022-12-20T01:31:39.586Z,101184.47
2022-12-20T01:34:06.847Z,101198.06
2022-12-20T01:36:38.137Z,101191.94
2022-12-20T01:39:16.266Z,101193.00
2022-12-20T01:41:45.921Z,101203.13
2022-12-20T01:44:18.792Z,101185.44
2022-12-20T01:46:50.770Z,101187.78
2022-12-20T01:49:28.138Z,101178.97
2022-12-20T01:52:39.664Z,101180.84
2022-12-20T01:55:24.253Z,101176.41
2022-12-20T01:58:07.943Z,101175.31
2022-12-20T02:00:35.353Z,101174.53
2022-12-20T02:03:13.799Z,101178.53
2022-12-20T02:05:45.592Z,101173.50
2022-12-20T02:08:16.867Z,101174.34
2022-12-20T02:11:39.167Z,101176.78
2022-12-20T02:14:40.481Z,101172.78
2022-12-20T02:18:00.657Z,101180.13
2022-12-20T02:20:57.293Z,101180.13
2022-12-20T02:24:25.722Z,101179.88
2022-12-20T02:27:28.798Z,101172.78
2022-12-20T02:30:35.474Z,101178.25
2022-12-20T02:33:11.385Z,101176.41
2022-12-20T02:35:41.623Z,101175.94
2022-12-20T02:38:36.362Z,101180.84
2022-12-20T02:41:27.208Z,101173.72
2022-12-20T02:44:24.025Z,101169.31
2022-12-20T02:46:53.777Z,101155.28
2022-12-20T02:49:27.558Z,101154.44
2022-12-20T02:51:56.412Z,101156.19
2022-12-20T02:54:24.565Z,101147.97
2022-12-20T02:57:06.534Z,101148.31
2022-12-20T02:59:50.500Z,101132.56
2022-12-20T03:02:18.864Z,101127.00
2022-12-20T03:04:48.713Z,101116.41
2022-12-20T03:07:16.686Z,101115.09
2022-12-20T03:09:45.196Z,101117.88
2022-12-20T03:12:15.913Z,101113.28
2022-12-20T03:14:43.293Z,101123.47
2022-12-20T03:17:11.001Z,101120.59
2022-12-20T03:19:38.203Z,101116.66
2022-12-20T03:22:05.414Z,101106.19
2022-12-20T03:24:32.707Z,101108.38
2022-12-20T03:26:59.859Z,101120.53
2022-12-20T03:29:27.099Z,101109.28
2022-12-20T03:31:54.137Z,101125.72
2022-12-20T03:34:21.178Z,101123.78
2022-12-20T03:36:48.218Z,101136.66
2022-12-20T03:39:15.213Z,101136.78
2022-12-20T03:41:42.273Z,101133.59
2022-12-20T03:44:10.484Z,101140.53
2022-12-20T03:46:37.816Z,101122.47
2022-12-20T03:49:04.902Z,101121.38
2022-12-20T03:51:32.073Z,101113.25
2022-12-20T03:53:59.131Z,101122.06
2022-12-20T03:56:26.157Z,101126.09
2022-12-20T03:58:53.237Z,101128.94
2022-12-20T04:01:28.590Z,101128.50
2022-12-20T04:03:59.238Z,101125.00
2022-12-20T04:06:26.394Z,101123.91
2022-12-20T04:08:53.393Z,101124.03
2022-12-20T04:11:20.659Z,101131.97
2022-12-20T04:13:52.006Z,101133.66
2022-12-20T04:16:28.126Z,101144.75
2022-12-20T04:18:55.437Z,101145.00
2022-12-20T04:21:35.162Z,101144.66
2022-12-20T04:24:04.503Z,101137.19
2022-12-20T04:26:31.700Z,101135.44
2022-12-20T04:28:58.905Z,101125.38
2022-12-20T04:31:26.044Z,101120.03
2022-12-20T04:33:56.106Z,101119.13
2022-12-20T04:36:23.109Z,101122.66
2022-12-20T04:38:50.316Z,101100.63
2022-12-20T04:41:23.501Z,101105.41
2022-12-20T04:43:57.086Z,101098.34
2022-12-20T04:46:26.420Z,101118.22
2022-12-20T04:48:59.373Z,101106.56
2022-12-20T04:51:28.673Z,101101.13
2022-12-20T04:53:56.597Z,101111.75
2022-12-20T04:56:29.377Z,101108.00
2022-12-20T04:58:59.015Z,101098.59
2022-12-20T05:01:26.768Z,101106.03
2022-12-20T05:03:54.927Z,101097.50
2022-12-20T05:06:22.087Z,101098.41
2022-12-20T05:08:49.221Z,101095.75
2022-12-20T05:11:17.029Z,101091.94
2022-12-20T05:13:44.283Z,101088.81
2022-12-20T05:16:11.445Z,101089.84
2022-12-20T05:18:44.501Z,101085.53
2022-12-20T05:21:34.780Z,101094.25
2022-12-20T05:24:20.294Z,101102.09
2022-12-20T05:26:47.386Z,101104.06
2022-12-20T05:29:14.408Z,101103.97
2022-12-20T05:31:41.691Z,101097.38
2022-12-20T05:34:08.799Z,101092.41
2022-12-20T05:36:36.090Z,101082.38
2022-12-20T05:39:04.519Z,101081.53
2022-12-20T05:41:32.014Z,101073.09
2022-12-20T05:43:59.203Z,101078.34
2022-12-20T05:46:26.431Z,101090.66
2022-12-20T05:48:53.772Z,101087.16
2022-12-20T05:51:23.943Z,101081.78
2022-12-20T05:53:50.968Z,101075.56
2022-12-20T05:56:18.109Z,101071.09
2022-12-20T05:58:45.091Z,101084.16
2022-12-20T06:01:12.199Z,101083.00
2022-12-20T06:03:40.702Z,101090.00
2022-12-20T06:06:14.136Z,101091.69
2022-12-20T06:08:42.369Z,101089.72
2022-12-20T06:11:09.532Z,101074.56
2022-12-20T06:13:36.635Z,101069.00
2022-12-20T06:16:04.307Z,101072.97
2022-12-20T06:18:31.524Z,101083.88
2022-12-20T06:20:58.855Z,101097.72
2022-12-20T06:23:26.002Z,101096.31
2022-12-20T06:25:53.187Z,101097.25
2022-12-20T06:28:22.211Z,101096.47
2022-12-20T06:30:54.530Z,101101.47
2022-12-20T06:33:22.077Z,101109.41
2022-12-20T06:35:53.362Z,101104.03
2022-12-20T06:38:20.419Z,101105.59
2022-12-20T06:40:47.403Z,101108.81
2022-12-20T06:43:14.438Z,101110.63
2022-12-20T06:45:42.430Z,101108.88
2022-12-20T06:48:10.953Z,101113.59
2022-12-20T06:50:39.555Z,101104.34
2022-12-20T06:53:06.681Z,101113.59
2022-12-20T06:55:34.325Z,101107.72
2022-12-20T06:58:01.311Z,101113.59
2022-12-20T07:00:28.493Z,101114.75
2022-12-20T07:02:55.699Z,101113.84
2022-12-20T07:05:22.864Z,101108.81
2022-12-20T07:07:50.153Z,101114.50
2022-12-20T07:10:17.639Z,101109.94
2022-12-20T07:15:32.014Z,101108.53
2022-12-20T07:17:59.806Z,101113.72
2022-12-20T07:20:27.112Z,101111.00
2022-12-20T07:22:54.159Z,101120.31
2022-12-20T07:25:21.481Z,101127.03
2022-12-20T07:27:52.684Z,101122.41
2022-12-20T07:30:21.137Z,101123.25
2022-12-20T07:32:48.534Z,101125.69
2022-12-20T07:35:16.457Z,101131.94
2022-12-20T07:37:44.648Z,101135.47
2022-12-20T07:40:12.744Z,101141.25
2022-12-20T07:42:48.206Z,101140.22
2022-12-20T07:45:21.798Z,101153.25
2022-12-20T07:47:48.851Z,101147.91
2022-12-20T07:50:15.996Z,101158.13
2022-12-20T07:52:46.789Z,101149.31
2022-12-20T07:55:14.621Z,101147.84
2022-12-20T07:57:57.366Z,101144.97
2022-12-20T08:00:24.595Z,101137.13
2022-12-20T08:03:01.572Z,101142.25
2022-12-20T08:05:29.398Z,101129.88
2022-12-20T08:08:01.905Z,101136.81
2022-12-20T08:10:29.211Z,101131.56
2022-12-20T08:12:57.812Z,101127.28
2022-12-20T08:15:31.892Z,101130.66
2022-12-20T08:17:59.140Z,101125.22
2022-12-20T08:20:26.501Z,101128.66
2022-12-20T08:22:57.987Z,101128.41
2022-12-20T08:25:25.701Z,101128.97
2022-12-20T08:27:53.099Z,101128.41
2022-12-20T08:30:20.211Z,101132.00
2022-12-20T08:32:47.507Z,101129.69
2022-12-20T08:35:14.511Z,101128.78
2022-12-20T08:37:41.899Z,101129.63
2022-12-20T08:40:10.072Z,101134.03
2022-12-20T08:42:37.075Z,101125.97
2022-12-20T08:45:06.001Z,101124.00
2022-12-20T08:47:33.005Z,101124.00
2022-12-20T08:50:01.109Z,101119.44
2022-12-20T08:52:29.985Z,101117.28
2022-12-20T08:54:57.143Z,101114.84
2022-12-20T08:57:24.591Z,101121.00
2022-12-20T08:59:51.877Z,101123.22
2022-12-20T09:02:19.016Z,101108.03
2022-12-20T09:04:46.197Z,101113.81
2022-12-20T09:07:13.546Z,101108.75
2022-12-20T09:09:40.920Z,101120.22
2022-12-20T09:12:08.038Z,101117.31
2022-12-20T09:14:35.154Z,101122.50
2022-12-20T09:17:02.218Z,101116.41
2022-12-20T09:19:29.346Z,101111.06
2022-12-20T09:21:56.540Z,101116.44
2022-12-20T09:24:23.951Z,101111.19
2022-12-20T09:26:52.272Z,101112.09
2022-12-20T09:29:25.880Z,101105.50
2022-12-20T09:31:55.450Z,101099.69
2022-12-20T09:34:22.457Z,101091.59
2022-12-20T09:36:49.717Z,101092.69
2022-12-20T09:39:16.795Z,101087.53
2022-12-20T09:41:45.061Z,101095.53
2022-12-20T09:44:24.363Z,101091.03
2022-12-20T09:47:18.427Z,101096.00
2022-12-20T09:49:52.520Z,101081.63
2022-12-20T09:52:55.679Z,101087.94
2022-12-20T09:55:52.398Z,101090.09
2022-12-20T09:58:33.316Z,101089.41
2022-12-20T10:01:25.566Z,101083.28
2022-12-20T10:03:57.974Z,101085.03
2022-12-20T10:07:02.228Z,101078.63
2022-12-20T10:10:03.122Z,101079.47
2022-12-20T10:13:01.392Z,101079.25
2022-12-20T10:15:51.081Z,101084.53
2022-12-20T10:18:46.245Z,101087.97
2022-12-20T10:21:48.068Z,101085.38
2022-12-20T10:24:35.330Z,101075.41
2022-12-20T10:27:21.051Z,101083.44
2022-12-20T10:29:50.683Z,101080.84
2022-12-20T10:32:23.134Z,101069.94
2022-12-20T10:35:16.881Z,101059.03
2022-12-20T10:38:09.149Z,101046.78
2022-12-20T10:43:54.577Z,101040.56
2022-12-20T10:46:22.263Z,101028.16
2022-12-20T10:48:51.121Z,101030.09
2022-12-20T10:51:22.500Z,101026.41
2022-12-20T10:54:01.264Z,101015.06
2022-12-20T10:56:34.113Z,101023.88
2022-12-20T10:59:15.930Z,101015.38
2022-12-20T11:01:47.698Z,101008.31
2022-12-20T11:04:33.417Z,100997.44
2022-12-20T11:07:26.864Z,101001.81
2022-12-20T11:10:16.987Z,100993.25
2022-12-20T11:13:00.236Z,100986.19
2022-12-20T11:15:49.039Z,100981.75
2022-12-20T11:19:07.124Z,100966.41
2022-12-20T11:22:20.437Z,100953.22
2022-12-20T11:25:53.940Z,100945.69
2022-12-20T11:28:56.071Z,100953.97
2022-12-20T11:32:04.353Z,100957.06
2022-12-20T11:35:07.996Z,100952.03
2022-12-20T11:38:09.002Z,100951.47
2022-12-20T11:40:56.384Z,100958.69
2022-12-20T11:44:24.505Z,100943.09
2022-12-20T11:47:20.470Z,100949.72
2022-12-20T11:50:14.673Z,100945.91
2022-12-20T11:53:25.743Z,100935.50
2022-12-20T11:55:59.143Z,100934.19
2022-12-20T11:58:55.725Z,100927.75
2022-12-20T12:02:16.816Z,100933.28
2022-12-20T12:04:55.934Z,100923.88
2022-12-20T12:07:39.501Z,100924.06
2022-12-20T12:10:23.466Z,100928.06
2022-12-20T12:13:00.896Z,100921.00
2022-12-20T12:16:01.676Z,100923.41
2022-12-20T12:18:34.186Z,100930.28
2022-12-20T12:21:26.302Z,100929.91
2022-12-20T12:24:30.835Z,100927.88
2022-12-20T12:26:59.930Z,100923.03
2022-12-20T12:29:30.889Z,100909.19
2022-12-20T12:32:44.010Z,100907.56
2022-12-20T12:35:35.963Z,100905.56
2022-12-20T12:39:06.617Z,100906.75
2022-12-20T12:42:46.710Z,100891.13
2022-12-20T12:45:32.470Z,100886.38
2022-12-20T12:48:35.910Z,100882.13
2022-12-20T12:51:04.706Z,100880.09
2022-12-20T12:53:51.642Z,100889.94
2022-12-20T12:56:44.935Z,100873.38
2022-12-20T12:59:33.378Z,100867.53
2022-12-20T13:02:06.000Z,100858.88
2022-12-20T13:05:25.995Z,100860.19
2022-12-20T13:07:53.621Z,100856.44
2022-12-20T13:10:21.926Z,100841.88
2022-12-20T13:13:01.855Z,100857.38
2022-12-20T13:15:30.284Z,100864.47
2022-12-20T13:18:17.494Z,100853.22
2022-12-20T13:21:37.048Z,100852.38
2022-12-20T13:24:49.384Z,100854.59
2022-12-20T13:27:51.103Z,100858.03
2022-12-20T13:30:18.721Z,100855.00
2022-12-20T13:32:48.367Z,100853.50
2022-12-20T13:35:24.756Z,100858.91
2022-12-20T13:38:06.192Z,100865.56
2022-12-20T13:40:57.816Z,100873.84
2022-12-20T13:43:35.879Z,100871.69
2022-12-20T13:46:11.849Z,100866.88
2022-12-20T13:48:47.528Z,100863.88
2022-12-20T13:51:27.979Z,100857.22
2022-12-20T13:54:00.643Z,100860.00
2022-12-20T13:56:27.580Z,100858.97
2022-12-20T13:58:57.852Z,100849.38
2022-12-20T14:01:26.467Z,100855.50
2022-12-20T14:03:54.459Z,100854.75
2022-12-20T14:06:27.236Z,100860.25
2022-12-20T14:08:54.817Z,100856.69
2022-12-20T14:11:29.632Z,100857.75
2022-12-20T14:14:04.537Z,100850.31
2022-12-20T14:16:33.539Z,100862.22
2022-12-20T14:19:05.540Z,100858.88
2022-12-20T14:21:43.013Z,100847.84
2022-12-20T14:24:22.188Z,100847.50
2022-12-20T14:26:53.873Z,100839.34
2022-12-20T14:29:31.023Z,100842.13
2022-12-20T14:31:58.277Z,100836.38
2022-12-20T14:34:38.093Z,100839.34
2022-12-20T14:37:36.178Z,100830.06
2022-12-20T14:40:14.545Z,100840.72
2022-12-20T14:42:42.045Z,100837.19
2022-12-20T14:45:18.359Z,100833.00
2022-12-20T14:48:15.441Z,100827.25
2022-12-20T14:50:54.257Z,100820.56
2022-12-20T14:53:28.858Z,100814.69
2022-12-20T14:55:56.935Z,100811.63
2022-12-20T14:58:30.359Z,100820.25
2022-12-20T15:01:22.265Z,100819.78
2022-12-20T15:03:59.488Z,100824.03
2022-12-20T15:06:48.217Z,100819.78
2022-12-20T15:09:18.439Z,100816.41
2022-12-20T15:11:47.304Z,100817.53
2022-12-20T15:14:39.281Z,100800.59
2022-12-20T15:17:15.771Z,100808.06
2022-12-20T15:19:46.301Z,100815.28
2022-12-20T15:22:18.576Z,100812.75
2022-12-20T15:24:45.818Z,100806.38
2022-12-20T15:27:16.604Z,100801.28
2022-12-20T15:29:43.682Z,100793.19
2022-12-20T15:32:30.869Z,100797.94
2022-12-20T15:34:57.981Z,100792.66
2022-12-20T15:37:25.021Z,100793.91
2022-12-20T15:39:52.096Z,100792.34
2022-12-20T15:42:22.758Z,100795.94
2022-12-20T15:44:51.420Z,100779.06
2022-12-20T15:47:29.173Z,100784.56
2022-12-20T15:49:56.221Z,100790.75
2022-12-20T15:52:26.511Z,100785.19
2022-12-20T15:54:54.741Z,100787.66
2022-12-20T15:57:21.776Z,100779.97
2022-12-20T16:00:01.063Z,100778.47
2022-12-20T16:02:32.859Z,100770.00
2022-12-20T16:05:01.456Z,100781.81
2022-12-20T16:07:28.553Z,100784.59
2022-12-20T16:09:55.678Z,100777.31
2022-12-20T16:12:34.614Z,100764.97
2022-12-20T16:15:01.805Z,100753.88
2022-12-20T16:17:28.857Z,100764.25
2022-12-20T16:19:55.886Z,100754.53
2022-12-20T16:22:24.862Z,100765.50
2022-12-20T16:24:52.256Z,100763.75
2022-12-20T16:27:20.360Z,100757.81
2022-12-20T16:29:47.494Z,100759.50
2022-12-20T16:32:22.228Z,100773.81
2022-12-20T16:34:51.203Z,100764.28
2022-12-20T16:37:19.170Z,100762.94
2022-12-20T16:39:46.396Z,100752.91
2022-12-20T16:42:17.256Z,100755.50
2022-12-20T16:44:45.722Z,100753.25
2022-12-20T16:47:14.748Z,100744.88
2022-12-20T16:49:49.633Z,100746.88
2022-12-20T16:52:21.751Z,100734.00
2022-12-20T16:54:48.935Z,100744.97
2022-12-20T16:57:15.967Z,100750.25
2022-12-20T16:59:43.018Z,100744.66
2022-12-20T17:02:32.817Z,100746.78
2022-12-20T17:05:01.963Z,100743.06
2022-12-20T17:07:30.373Z,100749.25
2022-12-20T17:10:11.545Z,100735.47
2022-12-20T17:12:38.821Z,100750.22
2022-12-20T17:15:06.912Z,100749.16
2022-12-20T17:17:34.305Z,100736.47
2022-12-20T17:20:01.567Z,100733.13
2022-12-20T17:25:24.610Z,100733.88
2022-12-20T17:27:55.575Z,100719.75
2022-12-20T17:30:25.519Z,100727.44
2022-12-20T17:32:56.359Z,100722.66
2022-12-20T17:35:33.247Z,100725.72
2022-12-20T17:38:01.965Z,100732.31
2022-12-20T17:40:29.577Z,100744.84
2022-12-20T17:42:56.588Z,100733.41
2022-12-20T17:45:32.526Z,100749.97
2022-12-20T17:48:00.159Z,100755.97
2022-12-20T17:50:27.762Z,100754.81
2022-12-20T17:52:55.423Z,100752.38
2022-12-20T17:55:28.324Z,100752.78
2022-12-20T17:57:56.694Z,100747.44
2022-12-20T18:00:39.049Z,100744.16
2022-12-20T18:03:07.291Z,100732.16
2022-12-20T18:05:34.927Z,100728.44
2022-12-20T18:08:02.216Z,100723.94
2022-12-20T18:10:29.246Z,100728.38
2022-12-20T18:12:56.319Z,100730.56
2022-12-20T18:15:23.864Z,100727.13
2022-12-20T18:17:50.888Z,100727.13
2022-12-20T18:20:18.020Z,100722.94
2022-12-20T18:22:45.078Z,100731.13
2022-12-20T18:25:14.088Z,100731.81
2022-12-20T18:27:42.870Z,100737.91
2022-12-20T18:30:12.861Z,100736.00
2022-12-20T18:32:41.149Z,100737.00
2022-12-20T18:35:09.921Z,100734.31
2022-12-20T18:37:44.794Z,100720.59
2022-12-20T18:40:11.973Z,100718.59
2022-12-20T18:42:39.024Z,100727.53
2022-12-20T18:45:07.137Z,100730.81
2022-12-20T18:47:35.184Z,100727.44
2022-12-20T18:50:02.226Z,100727.03
2022-12-20T18:52:29.222Z,100717.84
2022-12-20T18:54:56.602Z,100722.66
2022-12-20T18:57:23.613Z,100717.56
2022-12-20T18:59:51.170Z,100726.28
2022-12-20T19:02:18.308Z,100729.38
2022-12-20T19:04:45.457Z,100725.63
2022-12-20T19:07:12.452Z,100714.16
2022-12-20T19:09:39.451Z,100718.59
2022-12-20T19:12:06.687Z,100719.44
2022-12-20T19:14:33.747Z,100717.03
2022-12-20T19:17:00.830Z,100719.44
2022-12-20T19:19:28.168Z,100717.75
2022-12-20T19:21:55.194Z,100722.03
2022-12-20T19:24:22.194Z,100727.97
2022-12-20T19:26:49.213Z,100729.47
2022-12-20T19:29:16.275Z,100725.22
2022-12-20T19:31:43.348Z,100723.84
2022-12-20T19:34:13.092Z,100721.94
2022-12-20T19:36:44.635Z,100717.25
2022-12-20T19:39:22.921Z,100722.00
2022-12-20T19:44:39.041Z,100721.41
2022-12-20T19:47:06.335Z,100715.44
2022-12-20T19:49:35.919Z,100701.84
2022-12-20T19:52:04.628Z,100700.41
2022-12-20T19:54:32.331Z,100703.50
2022-12-20T19:56:59.528Z,100725.28
2022-12-20T19:59:26.590Z,100717.50
2022-12-20T20:01:53.712Z,100709.44
2022-12-20T20:04:20.794Z,100714.53
2022-12-20T20:06:48.224Z,100725.81
2022-12-20T20:09:15.393Z,100717.72
2022-12-20T20:11:42.567Z,100701.69
2022-12-20T20:14:10.306Z,100693.72
2022-12-20T20:16:38.393Z,100706.03
2022-12-20T20:19:05.859Z,100697.50
2022-12-20T20:21:36.222Z,100690.78
2022-12-20T20:24:04.041Z,100701.16
2022-12-20T20:26:31.797Z,100689.34
2022-12-20T20:29:01.853Z,100694.13
2022-12-20T20:31:29.695Z,100689.34
2022-12-20T20:33:58.559Z,100685.75
2022-12-20T20:36:25.607Z,100695.50
2022-12-20T20:38:52.769Z,100697.50
2022-12-20T20:41:20.074Z,100684.44
2022-12-20T20:43:47.876Z,100688.44
2022-12-20T20:46:17.563Z,100685.53
2022-12-20T20:48:45.445Z,100681.25
2022-12-20T20:51:13.145Z,100684.28
2022-12-20T20:53:40.451Z,100681.41
2022-12-20T20:56:09.379Z,100684.78
2022-12-20T20:58:38.089Z,100676.22
2022-12-20T21:01:09.113Z,100670.72
2022-12-20T21:03:36.929Z,100679.59
2022-12-20T21:06:39.109Z,100678.56
2022-12-20T21:08:54.307Z,100675.31
2022-12-20T21:11:21.443Z,100671.38
2022-12-20T21:13:48.681Z,100683.44
2022-12-20T21:16:22.199Z,100684.06
2022-12-20T21:18:56.003Z,100671.84
2022-12-20T21:21:32.359Z,100682.81
2022-12-20T21:23:59.511Z,100673.34
2022-12-20T21:26:27.046Z,100672.03
2022-12-20T21:29:00.930Z,100667.25
2022-12-20T21:31:28.624Z,100679.31
2022-12-20T21:33:59.090Z,100670.75
2022-12-20T21:36:36.623Z,100674.63
2022-12-20T21:39:04.093Z,100674.38
2022-12-20T21:41:31.344Z,100674.06
2022-12-20T21:44:02.981Z,100655.44
2022-12-20T21:46:31.959Z,100670.19
2022-12-20T21:49:00.204Z,100661.31
2022-12-20T21:51:29.837Z,100663.72
2022-12-20T21:54:00.795Z,100661.13
2022-12-20T21:56:42.969Z,100656.69
2022-12-20T21:59:11.175Z,100656.03
2022-12-20T22:01:42.147Z,100662.47
2022-12-20T22:04:13.553Z,100657.19
2022-12-20T22:06:43.255Z,100652.09
2022-12-20T22:09:12.367Z,100650.69
2022-12-20T22:11:40.477Z,100649.69
2022-12-20T22:14:14.785Z,100655.91
2022-12-20T22:16:43.740Z,100658.50
2022-12-20T22:19:14.917Z,100663.59
2022-12-20T22:21:42.245Z,100664.69
2022-12-20T22:24:19.691Z,100655.47
2022-12-20T22:26:46.845Z,100648.84
2022-12-20T22:29:17.002Z,100655.91
2022-12-20T22:31:44.465Z,100651.78
2022-12-20T22:34:11.664Z,100653.22
2022-12-20T22:36:38.901Z,100653.63
2022-12-20T22:39:06.023Z,100646.28
2022-12-20T22:41:41.510Z,100641.56
2022-12-20T22:44:08.596Z,100642.25
2022-12-20T22:46:35.668Z,100629.44
2022-12-20T22:49:03.335Z,100631.19
2022-12-20T22:51:33.198Z,100635.75
2022-12-20T22:54:00.815Z,100635.22
2022-12-20T22:56:28.693Z,100632.22
2022-12-20T22:58:55.972Z,100620.19
2022-12-20T23:01:23.746Z,100625.38
2022-12-20T23:03:51.014Z,100630.38
2022-12-20T23:06:21.563Z,100626.06
2022-12-20T23:08:49.085Z,100625.69
2022-12-20T23:11:45.160Z,100629.22
2022-12-20T23:14:39.589Z,100608.81
2022-12-20T23:17:10.243Z,100615.69
2022-12-20T23:19:56.163Z,100606.97
2022-12-20T23:22:39.278Z,100620.03
2022-12-20T23:25:18.117Z,100630.56
2022-12-20T23:27:49.392Z,100624.91
2022-12-20T23:30:23.296Z,100636.03
2022-12-20T23:32:56.350Z,100630.09
2022-12-20T23:35:24.705Z,100632.59
2022-12-20T23:37:51.755Z,100631.91
2022-12-20T23:40:19.175Z,100641.53
2022-12-20T23:42:46.298Z,100630.16
2022-12-20T23:45:13.641Z,100628.06
2022-12-20T23:47:40.638Z,100620.94
2022-12-20T23:50:08.700Z,100620.19
2022-12-20T23:52:36.662Z,100618.69
2022-12-20T23:55:04.219Z,100615.69
2022-12-20T23:57:31.819Z,100613.84
2022-12-20T23:59:58.939Z,100607.91
